createdAt,value
2024-04-30T00:00:46.243Z,98669.36
2024-04-30T00:03:15.590Z,98667.84
2024-04-30T00:05:44.530Z,98672.59
2024-04-30T00:08:12.195Z,98668.92
2024-04-30T00:10:39.639Z,98668.44
2024-04-30T00:13:07.330Z,98668.79
2024-04-30T00:15:34.834Z,98675.06
2024-04-30T00:18:02.212Z,98677.84
2024-04-30T00:20:29.657Z,98679.00
2024-04-30T00:22:57.307Z,98677.72
2024-04-30T00:25:24.777Z,98676.92
2024-04-30T00:27:52.335Z,98675.85
2024-04-30T00:30:19.662Z,98678.67
2024-04-30T00:32:47.038Z,98682.85
2024-04-30T00:35:14.667Z,98685.16
2024-04-30T00:37:43.148Z,98678.62
2024-04-30T00:40:11.510Z,98683.55
2024-04-30T00:42:39.023Z,98678.72
2024-04-30T00:45:07.058Z,98682.03
2024-04-30T00:47:34.753Z,98679.73
2024-04-30T00:50:02.855Z,98676.30
2024-04-30T00:52:31.211Z,98684.77
2024-04-30T00:54:59.125Z,98684.11
2024-04-30T00:57:26.903Z,98684.70
2024-04-30T00:59:54.451Z,98682.09
2024-04-30T01:02:22.469Z,98687.85
2024-04-30T01:05:02.681Z,98682.77
2024-04-30T01:07:30.491Z,98686.07
2024-04-30T01:09:58.487Z,98681.76
2024-04-30T01:12:26.097Z,98675.57
2024-04-30T01:14:53.628Z,98678.03
2024-04-30T01:17:21.442Z,98680.31
2024-04-30T01:19:49.097Z,98679.52
2024-04-30T01:22:16.720Z,98670.89
2024-04-30T01:24:44.182Z,98668.19
2024-04-30T01:27:11.768Z,98671.17
2024-04-30T01:29:39.410Z,98666.86
2024-04-30T01:32:08.149Z,98664.15
2024-04-30T01:34:37.367Z,98660.09
2024-04-30T01:37:05.353Z,98659.31
2024-04-30T01:39:32.893Z,98656.61
2024-04-30T01:42:00.388Z,98655.56
2024-04-30T01:44:28.061Z,98659.59
2024-04-30T01:46:55.453Z,98650.45
2024-04-30T01:49:23.500Z,98651.53
2024-04-30T01:51:51.146Z,98661.02
2024-04-30T01:54:18.786Z,98658.12
2024-04-30T01:56:46.304Z,98651.06
2024-04-30T01:59:14.047Z,98654.39
2024-04-30T02:01:41.623Z,98647.34
2024-04-30T02:04:09.380Z,98651.71
2024-04-30T02:06:36.880Z,98653.90
2024-04-30T02:09:08.934Z,98653.66
2024-04-30T02:11:36.903Z,98655.34
2024-04-30T02:14:09.160Z,98648.66
2024-04-30T02:16:42.474Z,98644.41
2024-04-30T02:19:21.393Z,98647.97
2024-04-30T02:21:52.518Z,98652.34
2024-04-30T02:24:24.096Z,98645.27
2024-04-30T02:26:54.379Z,98649.83
2024-04-30T02:29:29.814Z,98643.91
2024-04-30T02:32:16.580Z,98639.66
2024-04-30T02:34:47.444Z,98642.18
2024-04-30T02:37:14.877Z,98645.96
2024-04-30T02:39:42.335Z,98647.88
2024-04-30T02:42:09.907Z,98651.13
2024-04-30T02:44:38.496Z,98646.91
2024-04-30T02:47:06.211Z,98638.26
2024-04-30T02:49:33.885Z,98642.95
2024-04-30T02:52:01.414Z,98647.84
2024-04-30T02:54:29.433Z,98642.98
2024-04-30T02:56:56.978Z,98643.58
2024-04-30T02:59:24.799Z,98648.72
2024-04-30T03:01:52.290Z,98648.77
2024-04-30T03:04:19.958Z,98654.44
2024-04-30T03:06:47.535Z,98658.50
2024-04-30T03:09:14.946Z,98656.59
2024-04-30T03:11:44.415Z,98657.94
2024-04-30T03:14:12.783Z,98651.73
2024-04-30T03:16:43.460Z,98663.61
2024-04-30T03:19:11.191Z,98656.59
2024-04-30T03:21:38.854Z,98663.41
2024-04-30T03:24:08.032Z,98659.87
2024-04-30T03:26:44.863Z,98662.08
2024-04-30T03:29:12.291Z,98655.39
2024-04-30T03:31:39.772Z,98664.06
2024-04-30T03:34:07.535Z,98670.05
2024-04-30T03:36:35.106Z,98669.52
2024-04-30T03:39:02.689Z,98662.81
2024-04-30T03:41:30.716Z,98667.12
2024-04-30T03:43:58.822Z,98667.62
2024-04-30T03:46:26.296Z,98671.95
2024-04-30T03:48:54.194Z,98668.14
2024-04-30T03:51:22.048Z,98674.59
2024-04-30T03:53:49.522Z,98673.16
2024-04-30T03:56:17.297Z,98677.99
2024-04-30T03:58:44.966Z,98679.27
2024-04-30T04:01:12.830Z,98676.81
2024-04-30T04:03:40.597Z,98687.30
2024-04-30T04:06:08.198Z,98680.53
2024-04-30T04:08:35.750Z,98695.83
2024-04-30T04:11:21.704Z,98694.43
2024-04-30T04:14:07.971Z,98693.82
2024-04-30T04:16:35.641Z,98697.83
2024-04-30T04:19:03.170Z,98708.58
2024-04-30T04:21:30.776Z,98700.13
2024-04-30T04:23:58.136Z,98707.67
2024-04-30T04:26:25.719Z,98695.95
2024-04-30T04:28:53.313Z,98693.13
2024-04-30T04:31:20.961Z,98700.58
2024-04-30T04:33:48.719Z,98693.16
2024-04-30T04:36:16.541Z,98694.14
2024-04-30T04:38:43.888Z,98701.29
2024-04-30T04:41:11.529Z,98696.84
2024-04-30T04:43:39.099Z,98699.71
2024-04-30T04:46:06.669Z,98696.06
2024-04-30T04:48:34.303Z,98697.22
2024-04-30T04:51:01.989Z,98694.89
2024-04-30T04:53:29.676Z,98683.91
2024-04-30T04:55:57.658Z,98683.69
2024-04-30T04:58:25.236Z,98691.38
2024-04-30T05:00:53.147Z,98691.22
2024-04-30T05:03:20.803Z,98679.89
2024-04-30T05:05:48.497Z,98682.13
2024-04-30T05:08:15.948Z,98679.22
2024-04-30T05:10:43.659Z,98683.33
2024-04-30T05:13:11.148Z,98673.66
2024-04-30T05:15:38.498Z,98672.61
2024-04-30T05:18:06.183Z,98672.13
2024-04-30T05:20:33.892Z,98674.10
2024-04-30T05:23:01.451Z,98673.37
2024-04-30T05:25:28.883Z,98668.79
2024-04-30T05:27:56.497Z,98670.53
2024-04-30T05:30:24.784Z,98668.66
2024-04-30T05:32:52.340Z,98663.30
2024-04-30T05:35:19.884Z,98663.64
2024-04-30T05:37:47.454Z,98655.05
2024-04-30T05:40:15.113Z,98655.16
2024-04-30T05:42:43.384Z,98652.83
2024-04-30T05:45:12.812Z,98651.68
2024-04-30T05:47:40.337Z,98647.57
2024-04-30T05:50:08.060Z,98656.00
2024-04-30T05:52:35.735Z,98648.59
2024-04-30T05:55:03.652Z,98642.38
2024-04-30T05:57:31.304Z,98644.31
2024-04-30T05:59:58.996Z,98637.78
2024-04-30T06:02:26.621Z,98642.11
2024-04-30T06:04:54.406Z,98640.98
2024-04-30T06:07:23.518Z,98632.59
2024-04-30T06:09:50.917Z,98626.57
2024-04-30T06:12:18.273Z,98632.21
2024-04-30T06:14:45.801Z,98625.09
2024-04-30T06:17:14.086Z,98626.36
2024-04-30T06:19:41.530Z,98625.30
2024-04-30T06:22:09.032Z,98622.70
2024-04-30T06:24:36.439Z,98625.56
2024-04-30T06:27:04.166Z,98624.73
2024-04-30T06:29:33.391Z,98626.75
2024-04-30T06:32:00.869Z,98619.36
2024-04-30T06:34:28.476Z,98626.94
2024-04-30T06:36:56.071Z,98625.67
2024-04-30T06:39:23.946Z,98627.63
2024-04-30T06:41:51.378Z,98627.41
2024-04-30T06:44:18.774Z,98633.52
2024-04-30T06:46:46.297Z,98632.66
2024-04-30T06:49:13.814Z,98639.52
2024-04-30T06:51:41.203Z,98640.36
2024-04-30T06:54:08.617Z,98641.87
2024-04-30T06:56:36.258Z,98638.93
2024-04-30T06:59:03.726Z,98646.92
2024-04-30T07:01:31.147Z,98654.25
2024-04-30T07:03:58.623Z,98656.12
2024-04-30T07:06:26.006Z,98655.59
2024-04-30T07:08:53.382Z,98655.30
2024-04-30T07:11:20.772Z,98660.41
2024-04-30T07:13:48.297Z,98662.27
2024-04-30T07:16:15.743Z,98660.94
2024-04-30T07:18:43.272Z,98657.78
2024-04-30T07:21:10.719Z,98665.10
2024-04-30T07:23:38.386Z,98666.56
2024-04-30T07:26:05.915Z,98671.50
2024-04-30T07:28:33.434Z,98661.59
2024-04-30T07:31:00.935Z,98663.77
2024-04-30T07:33:30.315Z,98656.22
2024-04-30T07:35:57.921Z,98657.38
2024-04-30T07:38:25.379Z,98656.97
2024-04-30T07:40:52.893Z,98653.08
2024-04-30T07:43:20.479Z,98644.16
2024-04-30T07:45:48.002Z,98646.64
2024-04-30T07:48:15.559Z,98645.67
2024-04-30T07:50:43.295Z,98646.22
2024-04-30T07:53:10.728Z,98633.36
2024-04-30T07:55:38.196Z,98642.41
2024-04-30T07:58:05.763Z,98643.69
2024-04-30T08:00:33.265Z,98649.50
2024-04-30T08:03:00.954Z,98645.04
2024-04-30T08:05:29.962Z,98643.52
2024-04-30T08:07:57.960Z,98649.75
2024-04-30T08:10:25.392Z,98646.63
2024-04-30T08:12:52.878Z,98650.05
2024-04-30T08:15:20.362Z,98646.14
2024-04-30T08:17:48.591Z,98643.80
2024-04-30T08:20:16.140Z,98641.63
2024-04-30T08:22:43.635Z,98641.33
2024-04-30T08:25:11.799Z,98640.66
2024-04-30T08:27:39.293Z,98642.43
2024-04-30T08:30:07.892Z,98632.62
2024-04-30T08:32:35.482Z,98632.06
2024-04-30T08:35:06.290Z,98623.95
2024-04-30T08:37:37.402Z,98623.53
2024-04-30T08:40:03.967Z,98619.57
2024-04-30T08:42:31.928Z,98626.69
2024-04-30T08:45:01.836Z,98622.16
2024-04-30T08:47:30.866Z,98620.91
2024-04-30T08:50:05.886Z,98615.98
2024-04-30T08:52:30.937Z,98617.38
2024-04-30T08:54:58.749Z,98615.39
2024-04-30T08:57:26.136Z,98610.73
2024-04-30T08:59:54.025Z,98609.84
2024-04-30T09:02:22.680Z,98600.98
2024-04-30T09:04:50.492Z,98598.63
2024-04-30T09:07:18.063Z,98598.30
2024-04-30T09:09:58.102Z,98588.52
2024-04-30T09:12:26.127Z,98585.93
2024-04-30T09:14:53.593Z,98580.83
2024-04-30T09:17:28.107Z,98576.69
2024-04-30T09:20:06.136Z,98568.36
2024-04-30T09:22:50.927Z,98563.86
2024-04-30T09:25:19.526Z,98558.13
2024-04-30T09:27:46.992Z,98558.33
2024-04-30T09:30:21.579Z,98557.05
2024-04-30T09:32:49.561Z,98553.70
2024-04-30T09:35:24.567Z,98555.33
2024-04-30T09:37:57.427Z,98546.78
2024-04-30T09:40:26.050Z,98546.66
2024-04-30T09:42:54.388Z,98541.80
2024-04-30T09:45:22.830Z,98530.30
2024-04-30T09:47:51.035Z,98531.88
2024-04-30T09:50:18.525Z,98522.99
2024-04-30T09:52:46.306Z,98520.07
2024-04-30T09:55:14.520Z,98531.09
2024-04-30T09:57:44.232Z,98528.66
2024-04-30T10:00:13.546Z,98512.59
2024-04-30T10:02:53.334Z,98509.12
2024-04-30T10:05:24.845Z,98512.23
2024-04-30T10:07:53.719Z,98508.97
2024-04-30T10:10:28.193Z,98507.53
2024-04-30T10:13:17.670Z,98497.79
2024-04-30T10:15:45.412Z,98489.11
2024-04-30T10:18:22.678Z,98488.72
2024-04-30T10:20:50.621Z,98486.91
2024-04-30T10:23:29.643Z,98486.75
2024-04-30T10:26:06.924Z,98482.00
2024-04-30T10:28:35.564Z,98479.58
2024-04-30T10:31:15.670Z,98481.22
2024-04-30T10:33:43.310Z,98476.28
2024-04-30T10:36:12.140Z,98467.58
2024-04-30T10:38:40.011Z,98466.33
2024-04-30T10:41:08.390Z,98468.94
2024-04-30T10:43:35.893Z,98463.98
2024-04-30T10:46:16.177Z,98455.39
2024-04-30T10:48:52.018Z,98450.41
2024-04-30T10:51:20.520Z,98447.28
2024-04-30T10:53:48.688Z,98446.33
2024-04-30T10:56:16.143Z,98443.92
2024-04-30T10:59:01.306Z,98439.20
2024-04-30T11:01:32.669Z,98436.54
2024-04-30T11:04:09.983Z,98431.05
2024-04-30T11:06:43.085Z,98421.58
2024-04-30T11:09:11.481Z,98425.76
2024-04-30T11:11:50.724Z,98421.69
2024-04-30T11:14:20.024Z,98412.84
2024-04-30T11:16:48.876Z,98413.06
2024-04-30T11:19:16.738Z,98408.70
2024-04-30T11:21:44.441Z,98405.55
2024-04-30T11:24:11.793Z,98400.59
2024-04-30T11:26:39.282Z,98400.59
2024-04-30T11:31:36.115Z,98395.25
2024-04-30T11:34:04.980Z,98393.06
2024-04-30T11:36:32.543Z,98384.91
2024-04-30T11:38:59.984Z,98387.25
2024-04-30T11:41:27.423Z,98388.42
2024-04-30T11:43:56.212Z,98384.69
2024-04-30T11:46:23.828Z,98390.28
2024-04-30T11:48:51.505Z,98382.95
2024-04-30T11:51:19.375Z,98377.37
2024-04-30T11:53:48.081Z,98379.33
2024-04-30T11:56:15.473Z,98376.77
2024-04-30T11:58:42.937Z,98373.78
2024-04-30T12:01:10.608Z,98374.97
2024-04-30T12:03:38.211Z,98366.23
2024-04-30T12:06:06.135Z,98364.64
2024-04-30T12:08:35.514Z,98362.23
2024-04-30T12:11:03.242Z,98356.64
2024-04-30T12:13:30.901Z,98353.83
2024-04-30T12:15:58.353Z,98349.63
2024-04-30T12:18:25.844Z,98351.45
2024-04-30T12:20:53.318Z,98351.05
2024-04-30T12:23:21.171Z,98348.25
2024-04-30T12:25:48.570Z,98339.47
2024-04-30T12:28:17.811Z,98343.42
2024-04-30T12:30:45.348Z,98343.47
2024-04-30T12:33:14.056Z,98334.34
2024-04-30T12:35:43.227Z,98338.94
2024-04-30T12:38:10.693Z,98333.73
2024-04-30T12:40:38.098Z,98328.53
2024-04-30T12:43:05.648Z,98327.96
2024-04-30T12:45:33.227Z,98320.61
2024-04-30T12:48:00.777Z,98326.34
2024-04-30T12:50:28.308Z,98317.78
2024-04-30T12:52:55.860Z,98314.75
2024-04-30T12:55:23.577Z,98309.16
2024-04-30T12:57:51.172Z,98306.70
2024-04-30T13:00:19.562Z,98312.02
2024-04-30T13:02:47.024Z,98306.62
2024-04-30T13:05:14.904Z,98309.42
2024-04-30T13:07:42.692Z,98303.11
2024-04-30T13:10:10.191Z,98295.41
2024-04-30T13:12:37.900Z,98290.22
2024-04-30T13:15:06.426Z,98287.99
2024-04-30T13:17:33.862Z,98283.62
2024-04-30T13:20:01.339Z,98278.84
2024-04-30T13:22:28.936Z,98284.41
2024-04-30T13:24:56.410Z,98277.30
2024-04-30T13:27:23.801Z,98275.31
2024-04-30T13:29:51.201Z,98268.55
2024-04-30T13:32:18.779Z,98277.25
2024-04-30T13:34:46.318Z,98275.52
2024-04-30T13:37:13.955Z,98273.83
2024-04-30T13:39:41.608Z,98279.61
2024-04-30T13:42:09.202Z,98268.34
2024-04-30T13:44:36.644Z,98265.55
2024-04-30T13:47:04.451Z,98268.14
2024-04-30T13:49:32.028Z,98270.89
2024-04-30T13:51:59.483Z,98267.09
2024-04-30T13:54:26.998Z,98268.33
2024-04-30T13:56:54.494Z,98260.65
2024-04-30T13:59:21.948Z,98260.12
2024-04-30T14:01:49.645Z,98271.69
2024-04-30T14:04:17.413Z,98264.23
2024-04-30T14:06:44.910Z,98258.11
2024-04-30T14:09:12.444Z,98258.32
2024-04-30T14:11:40.108Z,98258.11
2024-04-30T14:14:07.742Z,98252.61
2024-04-30T14:16:35.181Z,98250.85
2024-04-30T14:19:02.835Z,98253.31
2024-04-30T14:21:30.752Z,98247.44
2024-04-30T14:23:58.175Z,98249.26
2024-04-30T14:26:25.631Z,98242.54
2024-04-30T14:28:53.105Z,98236.44
2024-04-30T14:31:23.314Z,98234.02
2024-04-30T14:33:50.645Z,98240.51
2024-04-30T14:36:35.820Z,98228.77
2024-04-30T14:39:09.858Z,98229.91
2024-04-30T14:41:39.325Z,98226.29
2024-04-30T14:44:06.867Z,98225.07
2024-04-30T14:46:34.590Z,98225.58
2024-04-30T14:49:02.425Z,98218.64
2024-04-30T14:51:37.752Z,98225.42
2024-04-30T14:54:06.010Z,98221.42
2024-04-30T14:56:34.074Z,98221.23
2024-04-30T14:59:02.032Z,98215.55
2024-04-30T15:01:29.857Z,98211.80
2024-04-30T15:03:57.466Z,98213.60
2024-04-30T15:06:27.518Z,98215.17
2024-04-30T15:08:54.979Z,98217.95
2024-04-30T15:11:24.582Z,98211.59
2024-04-30T15:13:52.285Z,98215.70
2024-04-30T15:16:20.459Z,98210.58
2024-04-30T15:18:48.598Z,98208.43
2024-04-30T15:21:16.056Z,98210.98
2024-04-30T15:23:44.374Z,98202.45
2024-04-30T15:26:14.106Z,98204.05
2024-04-30T15:28:42.480Z,98209.46
2024-04-30T15:31:17.368Z,98212.88
2024-04-30T15:33:45.051Z,98209.32
2024-04-30T15:36:12.503Z,98208.09
2024-04-30T15:38:40.161Z,98210.09
2024-04-30T15:41:08.387Z,98212.64
2024-04-30T15:43:38.701Z,98202.17
2024-04-30T15:46:06.587Z,98207.55
2024-04-30T15:48:35.562Z,98207.00
2024-04-30T15:51:04.970Z,98209.80
2024-04-30T15:53:32.436Z,98211.22
2024-04-30T15:56:09.970Z,98208.29
2024-04-30T15:58:29.296Z,98212.70
2024-04-30T16:00:56.780Z,98213.12
2024-04-30T16:03:24.324Z,98207.79
2024-04-30T16:05:51.958Z,98200.13
2024-04-30T16:08:19.478Z,98201.77
2024-04-30T16:10:47.138Z,98204.77
2024-04-30T16:13:14.636Z,98209.31
2024-04-30T16:15:42.109Z,98209.35
2024-04-30T16:18:10.241Z,98204.42
2024-04-30T16:20:39.683Z,98209.37
2024-04-30T16:23:07.124Z,98213.31
2024-04-30T16:25:34.799Z,98216.48
2024-04-30T16:28:02.222Z,98212.55
2024-04-30T16:30:31.353Z,98208.98
2024-04-30T16:32:58.817Z,98205.65
2024-04-30T16:35:26.285Z,98211.95
2024-04-30T16:37:53.851Z,98210.95
2024-04-30T16:40:21.360Z,98207.55
2024-04-30T16:42:48.867Z,98215.05
2024-04-30T16:45:16.344Z,98215.20
2024-04-30T16:47:45.658Z,98209.67
2024-04-30T16:50:13.303Z,98209.23
2024-04-30T16:52:40.803Z,98208.04
2024-04-30T16:55:08.294Z,98216.30
2024-04-30T16:57:38.240Z,98211.55
2024-04-30T17:00:08.619Z,98211.50
2024-04-30T17:02:36.206Z,98210.25
2024-04-30T17:05:05.089Z,98212.53
2024-04-30T17:07:35.630Z,98213.87
2024-04-30T17:10:02.147Z,98212.22
2024-04-30T17:12:29.836Z,98213.91
2024-04-30T17:14:57.249Z,98218.56
2024-04-30T17:17:24.857Z,98215.15
2024-04-30T17:19:52.446Z,98214.83
2024-04-30T17:22:20.209Z,98217.32
2024-04-30T17:24:48.223Z,98218.59
2024-04-30T17:27:15.759Z,98225.41
2024-04-30T17:29:43.196Z,98226.32
2024-04-30T17:32:10.776Z,98234.31
2024-04-30T17:34:38.233Z,98232.25
2024-04-30T17:37:05.754Z,98231.73
2024-04-30T17:39:33.448Z,98224.34
2024-04-30T17:42:01.767Z,98230.53
2024-04-30T17:44:30.065Z,98234.57
2024-04-30T17:46:57.702Z,98238.61
2024-04-30T17:49:25.183Z,98244.41
2024-04-30T17:51:52.760Z,98240.36
2024-04-30T17:54:20.358Z,98236.66
2024-04-30T17:56:48.040Z,98242.59
2024-04-30T17:59:15.463Z,98250.13
2024-04-30T18:01:47.814Z,98248.61
2024-04-30T18:04:15.378Z,98261.26
2024-04-30T18:06:43.102Z,98263.83
2024-04-30T18:09:10.531Z,98263.88
2024-04-30T18:11:38.823Z,98264.75
2024-04-30T18:14:06.361Z,98276.86
2024-04-30T18:16:37.182Z,98268.66
2024-04-30T18:19:09.132Z,98267.59
2024-04-30T18:21:37.052Z,98265.88
2024-04-30T18:24:06.336Z,98272.62
2024-04-30T18:26:39.009Z,98282.95
2024-04-30T18:29:06.741Z,98281.69
2024-04-30T18:31:34.394Z,98277.32
2024-04-30T18:34:02.502Z,98281.67
2024-04-30T18:36:30.308Z,98289.42
2024-04-30T18:38:57.795Z,98286.16
2024-04-30T18:41:30.549Z,98292.08
2024-04-30T18:43:56.350Z,98289.34
2024-04-30T18:46:23.932Z,98290.73
2024-04-30T18:48:52.051Z,98287.24
2024-04-30T18:51:20.135Z,98299.44
2024-04-30T18:53:47.731Z,98296.31
2024-04-30T18:56:17.041Z,98300.72
2024-04-30T18:58:48.161Z,98303.75
2024-04-30T19:01:16.617Z,98297.30
2024-04-30T19:03:48.519Z,98301.01
2024-04-30T19:06:15.300Z,98303.00
2024-04-30T19:08:42.819Z,98311.14
2024-04-30T19:11:11.034Z,98308.80
2024-04-30T19:13:38.555Z,98311.23
2024-04-30T19:16:06.080Z,98310.23
2024-04-30T19:18:33.815Z,98319.16
2024-04-30T19:21:07.068Z,98315.53
2024-04-30T19:23:34.986Z,98316.61
2024-04-30T19:26:03.157Z,98315.02
2024-04-30T19:28:30.703Z,98318.58
2024-04-30T19:30:58.905Z,98316.58
2024-04-30T19:33:26.563Z,98311.91
2024-04-30T19:35:54.264Z,98317.08
2024-04-30T19:38:21.702Z,98306.27
2024-04-30T19:40:49.091Z,98304.80
2024-04-30T19:43:16.669Z,98313.72
2024-04-30T19:45:44.295Z,98313.51
2024-04-30T19:48:15.862Z,98305.98
2024-04-30T19:50:42.404Z,98308.05
2024-04-30T19:53:09.977Z,98303.52
2024-04-30T19:55:37.552Z,98306.95
2024-04-30T19:58:05.097Z,98299.20
2024-04-30T20:00:32.563Z,98305.84
2024-04-30T20:03:00.153Z,98305.38
2024-04-30T20:05:28.026Z,98310.88
2024-04-30T20:07:57.189Z,98312.15
2024-04-30T20:10:24.661Z,98311.59
2024-04-30T20:12:52.405Z,98310.94
2024-04-30T20:15:20.163Z,98315.74
2024-04-30T20:17:47.722Z,98317.01
2024-04-30T20:20:15.303Z,98317.70
2024-04-30T20:22:45.591Z,98316.80
2024-04-30T20:25:12.449Z,98318.31
2024-04-30T20:27:40.068Z,98313.53
2024-04-30T20:30:11.285Z,98319.26
2024-04-30T20:32:37.515Z,98323.38
2024-04-30T20:35:05.730Z,98321.57
2024-04-30T20:37:33.357Z,98324.56
2024-04-30T20:40:00.787Z,98325.52
2024-04-30T20:42:28.601Z,98329.65
2024-04-30T20:44:56.259Z,98324.16
2024-04-30T20:47:23.947Z,98329.87
2024-04-30T20:49:51.436Z,98324.61
2024-04-30T20:52:19.182Z,98333.06
2024-04-30T20:54:46.803Z,98333.96
2024-04-30T20:57:14.441Z,98338.06
2024-04-30T20:59:42.020Z,98338.30
2024-04-30T21:02:09.842Z,98340.47
2024-04-30T21:04:37.716Z,98338.52
2024-04-30T21:07:05.499Z,98336.59
2024-04-30T21:09:33.252Z,98334.88
2024-04-30T21:12:00.877Z,98325.08
2024-04-30T21:14:28.521Z,98325.75
2024-04-30T21:16:56.164Z,98331.67
2024-04-30T21:19:24.041Z,98326.85
2024-04-30T21:21:51.824Z,98328.20
2024-04-30T21:24:19.570Z,98327.38
2024-04-30T21:26:47.381Z,98331.11
2024-04-30T21:29:14.895Z,98326.82
2024-04-30T21:31:42.395Z,98325.32
2024-04-30T21:34:10.253Z,98328.22
2024-04-30T21:36:42.176Z,98342.24
2024-04-30T21:39:09.959Z,98329.02
2024-04-30T21:41:37.877Z,98336.49
2024-04-30T21:44:05.431Z,98339.73
2024-04-30T21:46:32.794Z,98337.30
2024-04-30T21:49:00.467Z,98338.98
2024-04-30T21:51:28.361Z,98339.58
2024-04-30T21:53:56.149Z,98338.05
2024-04-30T21:56:27.578Z,98339.91
2024-04-30T21:58:55.793Z,98338.75
2024-04-30T22:01:25.128Z,98341.72
2024-04-30T22:03:53.191Z,98337.59
2024-04-30T22:06:21.209Z,98342.10
2024-04-30T22:08:49.063Z,98333.63
2024-04-30T22:11:17.960Z,98337.91
2024-04-30T22:13:45.391Z,98337.61
2024-04-30T22:16:13.092Z,98337.00
2024-04-30T22:18:40.672Z,98332.27
2024-04-30T22:21:09.992Z,98335.18
2024-04-30T22:23:38.836Z,98333.92
2024-04-30T22:26:06.857Z,98336.03
2024-04-30T22:28:34.776Z,98330.84
2024-04-30T22:31:04.200Z,98328.30
2024-04-30T22:33:31.952Z,98326.63
2024-04-30T22:35:59.700Z,98331.11
2024-04-30T22:38:27.248Z,98325.35
2024-04-30T22:40:55.450Z,98319.59
2024-04-30T22:43:23.044Z,98319.94
2024-04-30T22:45:51.405Z,98328.17
2024-04-30T22:48:19.327Z,98327.55
2024-04-30T22:50:47.048Z,98331.50
2024-04-30T22:53:14.773Z,98325.10
2024-04-30T22:55:42.339Z,98323.67
2024-04-30T22:58:09.714Z,98329.52
2024-04-30T23:00:37.341Z,98326.70
2024-04-30T23:03:05.394Z,98318.63
2024-04-30T23:05:33.089Z,98323.00
2024-04-30T23:08:00.438Z,98323.05
2024-04-30T23:10:28.026Z,98322.48
2024-04-30T23:12:55.699Z,98323.14
2024-04-30T23:15:23.154Z,98316.41
2024-04-30T23:17:51.602Z,98321.38
2024-04-30T23:20:19.403Z,98318.48
2024-04-30T23:22:47.041Z,98315.03
2024-04-30T23:25:14.712Z,98313.11
2024-04-30T23:27:42.320Z,98310.72
2024-04-30T23:30:10.689Z,98311.11
2024-04-30T23:32:38.104Z,98314.45
2024-04-30T23:35:06.041Z,98313.71
2024-04-30T23:37:33.571Z,98312.83
2024-04-30T23:40:01.407Z,98317.20
2024-04-30T23:42:30.712Z,98310.50
2024-04-30T23:44:58.415Z,98315.37
2024-04-30T23:47:25.962Z,98306.72
2024-04-30T23:49:53.791Z,98311.41
2024-04-30T23:52:21.191Z,98313.66
2024-04-30T23:54:48.835Z,98307.73
2024-04-30T23:57:16.475Z,98307.08
2024-04-30T23:59:44.084Z,98309.61
